Lott, Texas
Current Conditions -  °F | °C
As of 10:15 AM on Friday 21 Nov 2014 (Local Time) from KTPL Reporting Station
Overcast Overcast  
Wind Chill: 64°   Ceiling: 200
Heat Index: 64°   Visibility: 2mi
Dew Point: 61°   Wind: 7mph
Humidity: 88%   Direction: 130°SE
Pressure: 30.11"   Gusts: NA
Location:  31.2°N, 97.04°W
Report Text: KTPL 211615Z AUTO 13006KT 2SM OVC002 18/16 A3011 RMK AO1
Loading
Personal Weather Stations






























Interactive Weather Map New forecast layout! Learn more

10-Day Weather Forecast

Advertisements
Track Severe Weather on mobile